Time;durP1;ratioP1;P1;durP2;ratioP2;P2;SDS_P1;SDS_P2;PMS_P1;PMS_P2;Temp;Humidity;BMP_temperature;BMP_pressure;BME280_temperature;BME280_humidity;BME280_pressure;Samples;Min_cycle;Max_cycle;Signal;HPM_P1;HPM_P2
2022/08/07 00:02:17;;;;;;;7.85;2.72;;;;;;;15.02;58.84;101164.05;2118871;81;34122;-62
2022/08/07 00:05:18;;;;;;;4.25;1.95;;;;;;;15.00;58.69;101170.01;2138396;83;29374;-61
2022/08/07 00:08:21;;;;;;;4.92;1.65;;;;;;;14.99;58.69;101176.36;2135782;81;27688;-64
2022/08/07 00:11:22;;;;;;;2.85;1.22;;;;;;;14.95;58.66;101168.02;2102246;83;28645;-65
2022/08/07 00:14:25;;;;;;;5.05;1.72;;;;;;;14.93;58.58;101168.58;2096233;83;30975;-63
2022/08/07 00:17:27;;;;;;;2.00;1.22;;;;;;;14.93;58.65;101175.33;2126661;83;32972;-67
2022/08/07 00:20:28;;;;;;;1.77;1.20;;;;;;;14.99;59.53;101176.81;2138462;82;29099;-66
2022/08/07 00:23:32;;;;;;;9.53;1.70;;;;;;;15.04;58.66;101172.94;2138646;82;27632;-67
2022/08/07 00:26:33;;;;;;;4.45;1.52;;;;;;;15.04;58.66;101172.94;2138501;83;28650;-66
2022/08/07 00:29:34;;;;;;;5.05;1.40;;;;;;;15.04;58.96;101180.14;2138696;83;31054;-65
2022/08/07 00:32:36;;;;;;;5.95;2.47;;;;;;;15.03;58.78;101175.70;2138243;83;34184;-63
2022/08/07 00:35:38;;;;;;;5.05;1.80;;;;;;;15.03;58.49;101175.70;2141226;81;29379;-64
2022/08/07 00:38:39;;;;;;;1.75;1.27;;;;;;;15.00;58.52;101175.41;2175802;81;27639;-67
2022/08/07 00:41:54;;;;;;;5.28;1.75;;;;;;;14.94;58.71;101175.72;2106924;81;28689;-62
2022/08/07 00:44:55;;;;;;;5.25;1.90;;;;;;;14.92;58.68;101171.38;2136747;82;30932;-62
2022/08/07 00:47:56;;;;;;;3.20;1.75;;;;;;;14.87;58.99;101172.48;2136381;83;32998;-61
2022/08/07 00:50:57;;;;;;;6.90;1.90;;;;;;;14.85;58.63;101170.84;2136730;83;30462;-62
2022/08/07 00:53:59;;;;;;;3.40;2.10;;;;;;;14.77;58.63;101163.16;2136844;83;27648;-62
2022/08/07 00:57:01;;;;;;;4.95;1.57;;;;;;;14.72;58.75;101163.87;2136434;83;29915;-62
2022/08/07 01:00:07;;;;;;;1.95;1.50;;;;;;;14.66;58.83;101165.03;2138310;83;31033;-65
2022/08/07 01:03:09;;;;;;;5.90;1.87;;;;;;;14.59;58.90;101175.28;2138711;83;33003;-63
2022/08/07 01:06:11;;;;;;;4.87;2.60;;;;;;;14.44;59.12;101170.69;2113888;83;29716;-59
2022/08/07 01:09:13;;;;;;;3.35;1.60;;;;;;;14.44;59.12;101170.69;2138429;83;27717;-60
2022/08/07 01:12:16;;;;;;;5.80;2.47;;;;;;;14.38;59.31;101179.97;2100761;84;29885;-60
2022/08/07 01:15:17;;;;;;;5.33;1.70;;;;;;;14.33;59.81;101174.39;2100654;84;31615;-61
2022/08/07 01:18:19;;;;;;;3.12;1.92;;;;;;;14.28;59.59;101174.18;2100151;84;33029;-64
2022/08/07 01:21:23;;;;;;;2.72;1.77;;;;;;;14.24;59.83;101179.32;2100294;84;29239;-64
2022/08/07 01:24:25;;;;;;;4.03;1.98;;;;;;;14.18;59.73;101178.77;2100564;84;28059;-64
2022/08/07 01:27:26;;;;;;;4.58;2.00;;;;;;;14.11;59.85;101184.45;2100289;84;29903;-63
2022/08/07 01:30:30;;;;;;;2.37;1.57;;;;;;;14.05;59.91;101183.44;2074438;84;27686;-64
2022/08/07 01:33:32;;;;;;;4.60;2.52;;;;;;;13.96;60.06;101183.41;2078205;84;33680;-62
2022/08/07 01:36:33;;;;;;;2.90;2.12;;;;;;;13.93;60.37;101185.37;2100254;84;30313;-63
2022/08/07 01:39:35;;;;;;;4.53;1.90;;;;;;;13.87;60.28;101183.00;2100636;84;27737;-64
2022/08/07 01:42:37;;;;;;;2.55;2.30;;;;;;;13.80;60.36;101184.63;2097176;83;28215;-62
2022/08/07 01:45:38;;;;;;;6.00;1.85;;;;;;;13.73;60.43;101181.86;2093960;85;31932;-64
2022/08/07 01:48:45;;;;;;;6.80;2.08;;;;;;;13.68;60.63;101183.41;2093707;85;33473;-61
2022/08/07 01:51:47;;;;;;;4.33;1.95;;;;;;;13.64;60.80;101187.67;2094009;84;29091;-60
2022/08/07 01:54:50;;;;;;;4.25;2.40;;;;;;;13.59;60.78;101186.55;2094082;84;27694;-61
2022/08/07 01:57:52;;;;;;;3.52;2.25;;;;;;;13.55;60.83;101192.17;2093885;84;28663;-61
2022/08/07 02:01:01;;;;;;;7.05;2.40;;;;;;;13.51;60.88;101186.03;2095900;83;31516;-61
2022/08/07 02:04:08;;;;;;;3.40;1.90;;;;;;;13.46;61.01;101187.61;2093268;85;34206;-60
2022/08/07 02:07:11;;;;;;;8.68;2.25;;;;;;;13.41;61.15;101186.94;2093253;85;30550;-61
2022/08/07 02:10:13;;;;;;;4.42;2.00;;;;;;;13.36;61.24;101193.00;2094561;84;27629;-61
2022/08/07 02:13:15;;;;;;;4.60;2.22;;;;;;;13.32;61.28;101192.25;2106531;84;29562;-61
2022/08/07 02:16:20;;;;;;;5.53;2.30;;;;;;;13.27;61.32;101192.07;2106538;84;31502;-59
2022/08/07 02:19:22;;;;;;;2.70;1.40;;;;;;;13.22;61.39;101195.87;2107132;84;34121;-63
2022/08/07 02:22:24;;;;;;;3.92;1.90;;;;;;;13.19;61.52;101187.94;2110016;84;30326;-60
2022/08/07 02:25:28;;;;;;;3.20;2.05;;;;;;;13.16;61.49;101188.07;2106502;84;27635;-60
2022/08/07 02:28:30;;;;;;;5.55;2.05;;;;;;;13.13;61.78;101187.35;2106733;84;29481;-60
2022/08/07 02:31:40;;;;;;;5.20;2.10;;;;;;;13.09;61.81;101185.73;2126601;82;31467;-60
2022/08/07 02:34:38;;;;;;;5.37;2.20;;;;;;;13.04;61.84;101188.64;2144944;82;32588;-61
2022/08/07 02:37:40;;;;;;;4.87;2.20;;;;;;;12.99;61.99;101183.45;2125661;82;30138;-60
2022/08/07 02:40:43;;;;;;;5.85;1.85;;;;;;;12.95;62.04;101184.55;2146474;83;28195;-62
2022/08/07 02:43:44;;;;;;;3.33;1.52;;;;;;;12.91;62.23;101182.94;2146513;82;29710;-61
2022/08/07 02:46:48;;;;;;;2.95;2.00;;;;;;;12.84;62.62;101183.70;2146564;82;31842;-62
2022/08/07 02:49:50;;;;;;;;;;;;;;;12.78;62.59;101187.13;2148737;83;33814;-61
2022/08/07 02:52:59;;;;;;;5.28;2.87;;;;;;;12.70;62.99;101191.51;2146285;83;29603;-62
2022/08/07 02:56:03;;;;;;;5.08;2.00;;;;;;;12.63;62.91;101194.05;2146555;82;28255;-61
2022/08/07 02:59:08;;;;;;;6.08;2.50;;;;;;;12.56;63.17;101190.30;2146509;82;28632;-63
2022/08/07 03:02:12;;;;;;;4.65;2.40;;;;;;;12.51;63.25;101200.38;2114252;83;31450;-60
2022/08/07 03:05:15;;;;;;;2.85;2.33;;;;;;;12.43;63.72;101194.44;2106697;84;33005;-61
2022/08/07 03:08:20;;;;;;;4.78;1.90;;;;;;;12.37;63.72;101190.20;2106414;84;30673;-61
2022/08/07 03:11:21;;;;;;;6.72;1.77;;;;;;;12.30;64.00;101190.94;2103461;84;27596;-60
2022/08/07 03:14:24;;;;;;;2.95;1.85;;;;;;;12.24;64.25;101189.87;2095666;84;28719;-59
2022/08/07 03:17:25;;;;;;;7.22;2.62;;;;;;;12.18;64.51;101191.47;2095614;85;31738;-61
2022/08/07 03:20:27;;;;;;;4.55;1.90;;;;;;;12.12;64.59;101190.38;2095612;85;34301;-60
2022/08/07 03:23:30;;;;;;;3.83;2.00;;;;;;;12.06;64.79;101186.13;2095917;84;29735;-60
2022/08/07 03:26:32;;;;;;;6.08;2.52;;;;;;;12.00;65.01;101185.03;2095658;85;27700;-61
2022/08/07 03:29:39;;;;;;;6.17;2.22;;;;;;;11.94;65.05;101182.10;2095574;85;29956;-61
2022/08/07 03:32:42;;;;;;;5.08;1.92;;;;;;;11.89;65.31;101185.47;2137014;83;31262;-60
2022/08/07 03:35:45;;;;;;;3.77;1.95;;;;;;;11.84;65.65;101180.27;2138368;83;33627;-63
2022/08/07 03:38:48;;;;;;;6.42;1.87;;;;;;;11.81;65.91;101179.07;2138509;83;29379;-62
2022/08/07 03:41:49;;;;;;;8.83;2.17;;;;;;;11.78;66.09;101187.69;2138600;83;27832;-61
2022/08/07 03:44:52;;;;;;;3.05;2.00;;;;;;;11.75;66.50;101184.67;2113942;83;29599;-60
2022/08/07 03:47:53;;;;;;;3.77;2.20;;;;;;;11.74;66.78;101185.61;2138321;83;32074;-63
2022/08/07 03:50:56;;;;;;;3.20;2.47;;;;;;;11.71;66.79;101187.06;2138251;83;33387;-61
2022/08/07 03:53:58;;;;;;;3.22;2.10;;;;;;;11.69;67.01;101190.28;2138579;83;28781;-60
2022/08/07 03:57:00;;;;;;;6.17;2.75;;;;;;;11.68;67.28;101192.11;2138835;82;27803;-59
2022/08/07 04:00:04;;;;;;;5.75;2.52;;;;;;;11.67;67.48;101192.14;2130607;83;28734;-60
2022/08/07 04:03:06;;;;;;;5.33;2.75;;;;;;;11.69;67.59;101196.98;2095534;85;31056;-62
2022/08/07 04:06:10;;;;;;;6.15;2.30;;;;;;;11.69;67.67;101194.30;2095692;85;34129;-62
2022/08/07 04:09:13;;;;;;;6.80;2.47;;;;;;;11.71;67.92;101193.78;2095849;84;29326;-62
2022/08/07 04:12:15;;;;;;;7.65;2.50;;;;;;;11.73;68.02;101190.57;2095747;84;27620;-60
2022/08/07 04:15:18;;;;;;;7.92;2.30;;;;;;;11.78;68.24;101197.09;2096088;84;29081;-62
2022/08/07 04:18:20;;;;;;;6.95;2.00;;;;;;;11.81;68.44;101201.89;2095928;84;32215;-60
2022/08/07 04:21:22;;;;;;;4.97;2.35;;;;;;;11.86;68.67;101199.87;2095843;84;33321;-59
2022/08/07 04:24:25;;;;;;;4.45;2.58;;;;;;;11.92;68.67;101205.94;2095934;84;29682;-61
2022/08/07 04:27:26;;;;;;;6.92;2.17;;;;;;;11.98;68.88;101211.07;2096037;84;27716;-60
2022/08/07 04:30:28;;;;;;;5.10;2.65;;;;;;;12.05;68.84;101207.70;2072590;83;29119;-60
2022/08/07 04:33:30;;;;;;;3.67;2.20;;;;;;;12.12;68.99;101207.83;2095839;84;30923;-60
2022/08/07 04:36:32;;;;;;;4.28;2.20;;;;;;;12.21;69.28;101206.58;2095471;85;33939;-61
2022/08/07 04:39:34;;;;;;;5.92;2.50;;;;;;;12.29;69.15;101213.37;2071927;84;30674;-63
2022/08/07 04:42:35;;;;;;;5.67;2.00;;;;;;;12.39;69.16;101204.94;2095565;84;27767;-62
2022/08/07 04:45:54;;;;;;;5.90;2.55;;;;;;;12.48;69.00;101206.36;2095960;84;29834;-60
2022/08/07 04:49:20;;;;;;;6.65;2.27;;;;;;;12.58;68.79;101207.70;2095812;84;31038;-60
2022/08/07 04:53:00;;;;;;;6.33;2.35;;;;;;;12.71;68.59;101209.39;2095053;85;32963;-60
2022/08/07 04:56:19;;;;;;;5.30;2.30;;;;;;;12.88;68.55;101212.66;2096304;84;29368;-61
2022/08/07 04:59:38;;;;;;;4.90;2.35;;;;;;;13.15;68.28;101217.27;2097783;83;27536;-60
2022/08/07 05:03:08;;;;;;;7.87;1.82;;;;;;;14.13;68.96;101214.89;2138685;82;30134;-60
2022/08/07 05:06:26;;;;;;;3.98;1.98;;;;;;;15.50;67.62;101208.65;2138322;83;31088;-60
2022/08/07 05:09:39;;;;;;;4.80;1.80;;;;;;;16.77;65.62;101213.97;2138307;83;34295;-61
2022/08/07 05:12:58;;;;;;;4.30;1.67;;;;;;;17.73;64.43;101212.05;2138672;83;29438;-62
2022/08/07 05:16:00;;;;;;;7.03;1.90;;;;;;;18.39;62.37;101208.66;2139818;83;27710;-60
2022/08/07 05:19:07;;;;;;;2.85;1.50;;;;;;;18.79;60.62;101210.46;2139058;83;28244;-61
2022/08/07 05:22:11;;;;;;;2.90;1.50;;;;;;;19.07;60.57;101217.57;2133393;83;31480;-61
2022/08/07 05:25:15;;;;;;;4.40;1.65;;;;;;;19.40;59.51;101217.48;2096540;84;33390;-62
2022/08/07 05:28:17;;;;;;;4.35;1.60;;;;;;;19.58;59.30;101219.34;2096979;84;30492;-62
2022/08/07 05:31:21;;;;;;;3.02;1.67;;;;;;;19.73;58.47;101214.64;2096568;84;27719;-60
2022/08/07 05:34:24;;;;;;;1.72;1.45;;;;;;;19.85;57.91;101214.23;2096972;84;28664;-60
2022/08/07 05:37:25;;;;;;;2.90;1.60;;;;;;;19.96;57.16;101211.22;2097157;84;31844;-60
2022/08/07 05:40:26;;;;;;;4.20;1.42;;;;;;;19.99;56.86;101212.36;2096758;84;33156;-60
2022/08/07 05:43:28;;;;;;;3.17;1.15;;;;;;;20.10;56.48;101218.34;2096725;84;29344;-61
2022/08/07 05:46:30;;;;;;;8.80;1.85;;;;;;;20.17;56.50;101220.48;2096930;84;27521;-60
2022/08/07 05:49:31;;;;;;;1.85;1.30;;;;;;;20.22;55.78;101223.33;2096931;84;28661;-60
2022/08/07 05:52:32;;;;;;;5.65;1.55;;;;;;;20.29;55.41;101224.11;2105230;83;32192;-60
2022/08/07 05:55:34;;;;;;;3.10;1.67;;;;;;;20.39;55.09;101220.19;2139127;83;33406;-60
2022/08/07 05:58:37;;;;;;;4.53;1.40;;;;;;;20.49;55.01;101221.23;2139649;83;29370;-60
2022/08/07 06:01:40;;;;;;;2.30;1.60;;;;;;;20.59;54.62;101228.68;2139426;83;27673;-62
2022/08/07 06:04:46;;;;;;;7.55;1.30;;;;;;;20.74;54.57;101230.21;2139381;83;29631;-60
2022/08/07 06:07:48;;;;;;;5.55;1.40;;;;;;;20.93;54.29;101239.19;2139345;83;31840;-60
2022/08/07 06:10:50;;;;;;;2.58;1.35;;;;;;;21.17;53.83;101235.52;2139283;83;33060;-61
2022/08/07 06:13:52;;;;;;;1.52;0.78;;;;;;;21.45;53.13;101238.75;2139004;83;29548;-60
2022/08/07 06:16:54;;;;;;;3.15;1.67;;;;;;;21.69;52.63;101238.64;2139583;83;27794;-60
2022/08/07 06:19:55;;;;;;;3.62;2.33;;;;;;;22.03;52.28;101241.81;2139468;83;28738;-60
2022/08/07 06:22:58;;;;;;;5.45;1.82;;;;;;;22.43;51.73;101243.08;2138094;83;32272;-60
2022/08/07 06:26:00;;;;;;;1.90;1.35;;;;;;;22.81;51.26;101235.30;2139369;82;33004;-60
2022/08/07 06:29:02;;;;;;;3.70;1.52;;;;;;;23.30;50.02;101229.65;2139152;83;29409;-60
2022/08/07 06:32:05;;;;;;;4.42;1.50;;;;;;;23.70;49.79;101232.55;2139663;83;27609;-61
2022/08/07 06:35:07;;;;;;;3.67;1.17;;;;;;;24.36;50.08;101231.95;2139440;83;29876;-60
2022/08/07 06:38:08;;;;;;;3.10;1.40;;;;;;;25.08;48.24;101242.56;2139519;82;31411;-65
2022/08/07 06:41:18;;;;;;;4.20;1.42;;;;;;;25.65;47.71;101240.30;2139472;83;33334;-60
2022/08/07 06:44:19;;;;;;;8.78;1.72;;;;;;;26.22;46.86;101237.37;2139373;83;30497;-60
2022/08/07 06:47:21;;;;;;;2.22;1.15;;;;;;;26.73;46.60;101235.41;2139658;83;27726;-60
2022/08/07 06:50:22;;;;;;;1.60;0.80;;;;;;;27.27;45.61;101242.16;2139919;83;29295;-60
2022/08/07 06:53:24;;;;;;;1.55;1.20;;;;;;;27.68;43.46;101229.67;2117411;83;31077;-61
2022/08/07 06:56:38;;;;;;;0.68;0.65;;;;;;;27.87;42.95;101236.78;2138362;83;33630;-60
2022/08/07 06:59:41;;;;;;;1.40;1.00;;;;;;;28.00;42.58;101245.42;2140033;83;30514;-60
2022/08/07 07:02:43;;;;;;;3.33;1.62;;;;;;;28.12;41.02;101240.48;2139450;83;27620;-60
2022/08/07 07:05:45;;;;;;;2.72;1.30;;;;;;;28.20;40.19;101232.75;2139548;83;29293;-61
2022/08/07 07:08:47;;;;;;;4.65;1.30;;;;;;;28.16;40.66;101232.24;2139197;83;31701;-60
2022/08/07 07:12:08;;;;;;;1.60;1.10;;;;;;;28.24;40.40;101231.39;2139378;82;33363;-60
2022/08/07 07:15:21;;;;;;;4.67;1.27;;;;;;;28.35;40.03;101231.58;2139266;83;30489;-60
2022/08/07 07:18:28;;;;;;;2.25;1.60;;;;;;;28.33;40.16;101235.87;2138232;83;27700;-60
2022/08/07 07:21:34;;;;;;;1.00;0.90;;;;;;;28.38;38.97;101228.98;2136255;83;28642;-60
2022/08/07 07:24:35;;;;;;;4.10;1.30;;;;;;;28.25;39.38;101217.08;2097107;84;31584;-60
2022/08/07 07:27:45;;;;;;;2.60;1.30;;;;;;;28.30;39.21;101221.58;2097003;84;33796;-60
2022/08/07 07:31:10;;;;;;;3.62;1.50;;;;;;;28.38;39.05;101222.09;2095751;84;30421;-61
2022/08/07 07:34:19;;;;;;;3.42;1.12;;;;;;;28.35;37.67;101219.18;2096452;84;27604;-60
2022/08/07 07:37:22;;;;;;;6.62;0.80;;;;;;;28.11;37.96;101208.99;2097026;84;29580;-60
2022/08/07 07:40:24;;;;;;;3.65;1.00;;;;;;;28.10;37.36;101213.63;2097168;84;31597;-60
2022/08/07 07:43:26;;;;;;;4.03;1.30;;;;;;;28.09;37.22;101217.91;2096532;84;33431;-60
2022/08/07 07:46:33;;;;;;;5.85;1.47;;;;;;;27.98;36.96;101217.70;2097002;84;29383;-62
2022/08/07 07:49:35;;;;;;;2.80;1.27;;;;;;;27.92;35.26;101212.36;2096968;84;28005;-60
2022/08/07 07:52:38;;;;;;;1.98;0.93;;;;;;;27.77;37.21;101205.25;2114742;83;29514;-61
2022/08/07 07:55:39;;;;;;;2.75;1.10;;;;;;;27.87;37.28;101209.23;2139437;82;32194;-60
2022/08/07 07:58:42;;;;;;;2.55;1.22;;;;;;;27.93;37.40;101213.20;2139299;83;47390;-61
2022/08/07 08:01:46;;;;;;;1.85;1.12;;;;;;;27.82;36.52;101205.62;2139326;83;30040;-61
2022/08/07 08:04:47;;;;;;;3.77;1.20;;;;;;;27.88;37.08;101205.45;2139743;82;27687;-60
2022/08/07 08:07:48;;;;;;;1.50;0.90;;;;;;;28.01;35.23;101209.95;2139520;83;28663;-60
2022/08/07 08:10:50;;;;;;;2.45;1.25;;;;;;;27.94;35.40;101213.55;2100447;82;31479;-60
2022/08/07 08:13:51;;;;;;;2.50;0.60;;;;;;;27.86;35.50;101208.89;2096110;84;33019;-61
2022/08/07 08:16:53;;;;;;;3.22;1.22;;;;;;;27.85;36.29;101215.42;2096339;84;30049;-62
2022/08/07 08:20:02;;;;;;;1.65;0.93;;;;;;;27.62;33.75;101206.92;2096109;84;27668;-60
2022/08/07 08:30:03;;;;;;;2.72;0.93;;;;;;;27.34;33.15;101205.75;2138471;83;33155;-61
2022/08/07 08:33:05;;;;;;;2.50;1.07;;;;;;;27.31;33.26;101205.55;2064939;86;29849;-61
2022/08/07 08:36:09;;;;;;;1.52;0.80;;;;;;;27.34;32.80;101214.00;2065222;86;27731;-61
2022/08/07 08:39:10;;;;;;;1.50;1.00;;;;;;;27.31;32.98;101206.92;2065521;86;28661;-61
2022/08/07 08:42:26;;;;;;;1.25;0.98;;;;;;;27.39;32.74;101213.86;2065428;86;30934;-60
2022/08/07 08:45:48;;;;;;;1.65;1.00;;;;;;;27.25;33.14;101217.22;2059316;86;34179;-63
2022/08/07 08:49:03;;;;;;;2.43;1.00;;;;;;;27.17;32.18;101215.79;2065337;86;27852;-62
2022/08/07 08:52:21;;;;;;;1.30;0.75;;;;;;;27.14;31.49;101214.23;2063330;86;28322;-60
2022/08/07 08:55:36;;;;;;;1.27;1.10;;;;;;;26.99;31.46;101213.96;2064915;86;29105;-61
2022/08/07 08:59:21;;;;;;;2.22;1.00;;;;;;;26.90;32.39;101205.33;2064888;86;31418;-60
2022/08/07 09:02:40;;;;;;;2.70;0.90;;;;;;;27.05;31.56;101213.33;2065171;86;33372;-63
2022/08/07 09:06:20;;;;;;;1.92;0.80;;;;;;;26.74;31.50;101211.02;2065273;86;30029;-64
2022/08/07 09:09:53;;;;;;;1.30;1.20;;;;;;;26.47;31.46;101214.26;2096923;83;27668;-62
2022/08/07 09:13:25;;;;;;;1.40;0.98;;;;;;;26.47;32.17;101219.75;2138807;83;29205;-62
2022/08/07 09:17:13;;;;;;;6.12;1.07;;;;;;;26.44;32.44;101211.82;2138362;83;32418;-60
2022/08/07 09:20:53;;;;;;;1.22;0.82;;;;;;;26.35;31.62;101208.62;2115165;83;28639;-62
2022/08/07 09:24:33;;;;;;;1.98;1.00;;;;;;;26.08;30.29;101208.52;2138102;83;29561;-61
2022/08/07 09:27:58;;;;;;;2.20;1.10;;;;;;;25.83;30.57;101208.77;2139319;83;27657;-60
2022/08/07 09:31:05;;;;;;;2.10;1.10;;;;;;;25.51;30.71;101207.88;2139524;82;28088;-65
2022/08/07 09:34:35;;;;;;;3.83;1.60;;;;;;;25.44;31.44;101199.40;2135528;83;31820;-62
2022/08/07 09:37:45;;;;;;;1.82;1.10;;;;;;;25.41;31.45;101196.92;2139255;83;34115;-61
2022/08/07 09:41:18;;;;;;;1.45;1.10;;;;;;;25.18;31.36;101196.80;2130869;83;29329;-63
2022/08/07 09:44:55;;;;;;;2.90;1.10;;;;;;;25.05;31.66;101187.17;2139400;83;27721;-62
2022/08/07 09:48:27;;;;;;;3.58;1.20;;;;;;;25.12;32.47;101186.94;2139078;83;29354;-60
2022/08/07 09:51:59;;;;;;;1.12;1.00;;;;;;;25.02;30.95;101193.30;2133913;83;31102;-60
2022/08/07 09:55:15;;;;;;;1.47;1.10;;;;;;;24.63;31.46;101187.02;2096747;83;33447;-64
2022/08/07 09:59:01;;;;;;;5.58;1.52;;;;;;;24.45;31.70;101179.55;2096882;84;29343;-64
2022/08/07 10:02:09;;;;;;;;;;;;;;;24.36;32.05;101175.80;2099495;84;27650;-64
2022/08/07 10:05:50;;;;;;;3.85;1.30;;;;;;;24.05;31.80;101181.95;2097080;84;29025;-63
2022/08/07 10:09:19;;;;;;;4.80;1.20;;;;;;;23.77;32.19;101174.88;2096719;84;31876;-63
2022/08/07 10:12:55;;;;;;;2.25;0.90;;;;;;;23.69;33.79;101172.84;2097004;84;33018;-63
2022/08/07 10:16:22;;;;;;;3.45;1.30;;;;;;;23.69;33.47;101159.69;2092452;84;30301;-62
2022/08/07 10:20:09;;;;;;;1.60;1.20;;;;;;;23.72;33.52;101161.63;2096518;84;27680;-61
2022/08/07 10:23:53;;;;;;;0.90;0.90;;;;;;;23.74;33.03;101169.70;2125249;83;29119;-61
2022/08/07 10:27:18;;;;;;;0.90;0.90;;;;;;;23.60;32.68;101161.39;2139340;83;31074;-60
2022/08/07 10:30:44;;;;;;;1.52;1.00;;;;;;;23.54;32.97;101145.05;2139338;83;34076;-61
2022/08/07 10:34:27;;;;;;;2.80;1.17;;;;;;;23.47;32.76;101153.44;2115332;84;29712;-63
2022/08/07 10:38:03;;;;;;;1.10;1.00;;;;;;;23.43;32.94;101139.19;2077081;85;27619;-63
2022/08/07 10:41:29;;;;;;;1.47;0.95;;;;;;;23.40;32.77;101148.17;2076590;85;29072;-59
2022/08/07 10:44:36;;;;;;;1.82;1.00;;;;;;;23.16;33.09;101133.83;2076642;85;31063;-62
2022/08/07 10:47:52;;;;;;;1.70;0.82;;;;;;;23.11;33.52;101132.48;2086116;84;33127;-61
2022/08/07 10:50:58;;;;;;;1.77;1.25;;;;;;;23.09;33.76;101135.36;2050415;86;29351;-61
2022/08/07 10:54:39;;;;;;;2.80;1.00;;;;;;;23.10;34.08;101123.43;2020683;86;27688;-60
2022/08/07 10:58:10;;;;;;;1.72;1.12;;;;;;;23.10;33.93;101127.53;2018586;88;30016;-59
2022/08/07 11:01:20;;;;;;;1.95;1.35;;;;;;;23.01;33.63;101124.23;2018606;88;31198;-58
2022/08/07 11:04:58;;;;;;;2.08;1.70;;;;;;;22.94;33.61;101114.87;2018934;88;33196;-59
2022/08/07 11:08:13;;;;;;;2.15;0.90;;;;;;;22.92;34.50;101112.27;1955016;90;30733;-59
2022/08/07 11:11:35;;;;;;;1.37;1.22;;;;;;;22.95;34.16;101110.63;1894943;93;27773;-60
2022/08/07 11:14:47;;;;;;;1.92;1.20;;;;;;;22.99;34.30;101109.88;1889378;93;28680;-59
2022/08/07 11:17:53;;;;;;;3.00;1.37;;;;;;;23.04;33.43;101110.30;1930467;92;31137;-58
2022/08/07 11:21:15;;;;;;;2.60;1.20;;;;;;;23.01;33.52;101101.01;1910287;92;33634;-59
2022/08/07 11:24:25;;;;;;;2.20;1.30;;;;;;;23.00;33.32;101107.51;1874697;94;30464;-61
2022/08/07 11:27:41;;;;;;;1.65;1.07;;;;;;;23.00;34.26;101098.80;1882871;93;27863;-60
2022/08/07 11:31:08;;;;;;;3.42;1.20;;;;;;;23.06;33.90;101098.73;1871846;95;29107;-59
2022/08/07 11:34:32;;;;;;;3.55;1.77;;;;;;;23.07;34.11;101101.83;1840667;96;31000;-60
2022/08/07 11:38:15;;;;;;;1.10;1.00;;;;;;;23.04;33.17;101094.79;1822436;97;33300;-60
2022/08/07 11:41:21;;;;;;;1.00;0.90;;;;;;;22.96;33.39;101099.22;1887248;94;30437;-60
2022/08/07 11:44:34;;;;;;;1.75;1.30;;;;;;;22.88;33.59;101086.23;1890698;93;27782;-60
2022/08/07 11:48:08;;;;;;;1.67;1.00;;;;;;;22.81;33.19;101081.83;1922974;89;29673;-69
2022/08/07 11:51:49;;;;;;;1.02;0.80;;;;;;;22.76;33.69;101083.58;1999575;87;30817;-60
2022/08/07 11:55:34;;;;;;;4.22;1.30;;;;;;;22.72;33.91;101079.42;2027790;87;33075;-61
2022/08/07 11:59:12;;;;;;;1.12;1.00;;;;;;;22.73;34.25;101081.15;2028166;87;29386;-63
2022/08/07 12:02:31;;;;;;;3.60;1.12;;;;;;;22.72;34.74;101076.69;2019741;86;27800;-62
2022/08/07 12:06:03;;;;;;;1.42;1.00;;;;;;;22.67;34.30;101074.00;2027899;86;28715;-60
2022/08/07 12:09:40;;;;;;;1.10;0.95;;;;;;;22.64;34.22;101072.91;2018950;87;31858;-62
2022/08/07 12:12:47;;;;;;;3.10;1.02;;;;;;;22.59;34.52;101071.92;2155910;81;34087;-62
2022/08/07 12:15:55;;;;;;;5.00;1.77;;;;;;;22.53;34.66;101066.51;2153876;81;30106;-61
2022/08/07 12:19:27;;;;;;;2.05;1.25;;;;;;;22.48;34.51;101070.65;2152542;81;27699;-63
2022/08/07 12:22:55;;;;;;;2.42;1.60;;;;;;;22.41;34.23;101074.39;2153005;81;28714;-60
2022/08/07 12:26:01;;;;;;;1.65;0.90;;;;;;;22.32;34.92;101062.41;2160059;81;31048;-63
2022/08/07 12:29:14;;;;;;;1.57;0.90;;;;;;;22.36;34.91;101057.54;2150083;81;33016;-63
2022/08/07 12:32:37;;;;;;;1.10;1.00;;;;;;;22.36;36.08;101057.54;2154885;81;29335;-62
2022/08/07 12:35:39;;;;;;;1.85;1.20;;;;;;;22.37;35.46;101049.72;2159178;81;27666;-62
2022/08/07 12:38:44;;;;;;;1.20;1.10;;;;;;;22.38;35.42;101057.79;2140272;81;29266;-60
2022/08/07 12:41:45;;;;;;;1.90;1.22;;;;;;;22.39;35.35;101051.81;2158734;81;31823;-62
2022/08/07 12:44:48;;;;;;;1.42;1.20;;;;;;;22.36;35.13;101046.62;2154124;81;33333;-63
2022/08/07 12:48:15;;;;;;;1.30;0.80;;;;;;;22.35;35.09;101048.98;2154082;81;29333;-62
2022/08/07 12:51:20;;;;;;;1.67;0.90;;;;;;;22.34;34.73;101047.28;2154895;81;28100;-62
2022/08/07 12:54:29;;;;;;;0.80;0.80;;;;;;;22.29;35.34;101040.35;2159821;81;29886;-60
2022/08/07 12:57:34;;;;;;;1.37;0.90;;;;;;;22.29;35.15;101031.28;2162497;81;31733;-60
2022/08/07 13:00:52;;;;;;;1.95;1.00;;;;;;;22.32;35.47;101029.66;2152692;81;33778;-60
2022/08/07 13:04:34;;;;;;;0.53;0.53;;;;;;;22.37;36.32;101036.06;2160756;81;28645;-59
2022/08/07 13:07:50;;;;;;;1.85;1.27;;;;;;;22.44;38.21;101027.23;2107496;84;28016;-59
2022/08/07 13:11:30;;;;;;;2.33;1.02;;;;;;;22.51;35.80;101024.81;1998017;87;29145;-59
2022/08/07 13:15:15;;;;;;;1.20;1.00;;;;;;;22.48;35.88;101016.92;1998394;87;31432;-60
2022/08/07 13:18:44;;;;;;;0.93;0.90;;;;;;;22.52;36.14;101020.23;1997469;87;33002;-60
2022/08/07 13:22:29;;;;;;;1.17;1.00;;;;;;;22.53;35.93;101017.35;1995778;87;29390;-58
2022/08/07 13:25:33;;;;;;;1.27;1.17;;;;;;;22.50;35.17;101010.83;1998473;87;27810;-62
2022/08/07 13:28:39;;;;;;;2.02;1.00;;;;;;;22.45;35.58;100998.08;1998125;87;29532;-61
2022/08/07 13:32:03;;;;;;;1.57;1.00;;;;;;;22.42;35.65;100996.46;1998449;87;30954;-61
2022/08/07 13:35:47;;;;;;;2.27;0.95;;;;;;;22.42;35.12;100996.98;1953786;89;32612;-61
2022/08/07 13:39:00;;;;;;;1.77;0.90;;;;;;;22.40;35.69;100993.00;1929170;90;28349;-60
2022/08/07 13:42:08;;;;;;;2.25;0.90;;;;;;;22.43;35.88;100983.70;1951840;89;27781;-60
2022/08/07 13:45:10;;;;;;;1.98;0.90;;;;;;;22.44;36.06;100974.50;1980848;88;29291;-60
2022/08/07 13:48:12;;;;;;;1.75;1.20;;;;;;;22.49;36.03;100979.55;2039249;85;31115;-59
2022/08/07 13:51:15;;;;;;;1.37;1.27;;;;;;;22.53;36.06;100976.39;2076384;85;33398;-60
2022/08/07 13:54:22;;;;;;;2.98;0.90;;;;;;;22.53;35.69;100970.93;2085664;84;29744;-58
2022/08/07 13:57:26;;;;;;;0.82;0.82;;;;;;;22.53;35.17;100963.26;2082311;84;27725;-59
2022/08/07 14:00:35;;;;;;;1.60;0.98;;;;;;;22.56;35.53;100967.93;2085557;85;28684;-59
2022/08/07 14:03:41;;;;;;;1.90;0.90;;;;;;;22.55;35.44;100955.28;2077491;85;31846;-59
2022/08/07 14:06:49;;;;;;;0.88;0.88;;;;;;;22.55;35.36;100955.80;2083324;85;33018;-59
2022/08/07 14:09:58;;;;;;;0.60;0.60;;;;;;;22.56;35.34;100959.73;2075522;85;29389;-58
2022/08/07 14:13:02;;;;;;;1.70;0.95;;;;;;;22.58;36.71;100958.25;2058928;85;27767;-57
2022/08/07 14:16:08;;;;;;;0.75;0.70;;;;;;;22.61;35.58;100953.37;2072050;84;28662;-57
2022/08/07 14:19:28;;;;;;;4.15;0.93;;;;;;;22.58;35.02;100952.28;2123647;82;31050;-57
2022/08/07 14:22:41;;;;;;;4.65;1.37;;;;;;;22.61;35.70;100954.73;2110210;83;33094;-60
2022/08/07 14:26:07;;;;;;;1.70;0.93;;;;;;;22.58;35.44;100944.09;2115859;83;27702;-58
2022/08/07 14:29:11;;;;;;;1.12;0.78;;;;;;;22.54;35.34;100942.63;2108986;83;27732;-59
2022/08/07 14:32:14;;;;;;;0.75;0.72;;;;;;;22.51;36.33;100943.41;2114205;83;28544;-59
2022/08/07 14:35:20;;;;;;;3.10;0.93;;;;;;;22.52;35.85;100935.07;2112606;83;32228;-59
2022/08/07 14:38:28;;;;;;;0.82;0.80;;;;;;;22.54;35.70;100934.95;2116099;83;32955;-59
2022/08/07 14:41:32;;;;;;;1.12;1.00;;;;;;;22.54;36.22;100932.22;2117178;83;29335;-59
2022/08/07 14:44:39;;;;;;;1.85;0.82;;;;;;;22.57;35.92;100934.68;2093927;83;27623;-61
2022/08/07 14:47:44;;;;;;;2.37;1.10;;;;;;;22.55;35.66;100927.97;2111123;83;28778;-59
2022/08/07 14:50:52;;;;;;;1.85;0.80;;;;;;;22.53;36.05;100925.88;2115514;83;31380;-59
2022/08/07 14:54:00;;;;;;;1.67;1.17;;;;;;;22.53;36.79;100922.30;2112368;83;33161;-59
2022/08/07 14:57:04;;;;;;;0.85;0.85;;;;;;;22.55;35.85;100922.51;2108449;83;29443;-59